sensor_id;sensor_type;location;lat;lon;timestamp;pressure;altitude;pressure_sealevel;temperature;humidity
76424;BME280;65257;52.104;4.268;2023-04-03T00:01:20;103077.22;;;4.35;100.00
76424;BME280;65257;52.104;4.268;2023-04-03T00:03:46;103074.41;;;4.32;100.00
76424;BME280;65257;52.104;4.268;2023-04-03T00:06:13;103077.84;;;4.24;100.00
76424;BME280;65257;52.104;4.268;2023-04-03T00:08:39;103090.06;;;4.28;100.00
76424;BME280;65257;52.104;4.268;2023-04-03T00:11:05;103083.19;;;4.27;100.00
76424;BME280;65257;52.104;4.268;2023-04-03T00:13:34;103087.53;;;4.28;100.00
76424;BME280;65257;52.104;4.268;2023-04-03T00:16:00;103084.41;;;4.22;100.00
76424;BME280;65257;52.104;4.268;2023-04-03T00:18:26;103079.34;;;4.22;100.00
76424;BME280;65257;52.104;4.268;2023-04-03T00:20:51;103089.47;;;4.22;100.00
76424;BME280;65257;52.104;4.268;2023-04-03T00:23:16;103084.09;;;4.19;100.00
76424;BME280;65257;52.104;4.268;2023-04-03T00:25:43;103088.59;;;4.13;100.00
76424;BME280;65257;52.104;4.268;2023-04-03T00:28:11;103086.06;;;4.13;100.00
76424;BME280;65257;52.104;4.268;2023-04-03T00:30:37;103090.06;;;4.11;100.00
76424;BME280;65257;52.104;4.268;2023-04-03T00:33:02;103088.28;;;4.10;100.00
76424;BME280;65257;52.104;4.268;2023-04-03T00:35:28;103083.97;;;4.09;100.00
76424;BME280;65257;52.104;4.268;2023-04-03T00:37:54;103082.03;;;4.07;100.00
76424;BME280;65257;52.104;4.268;2023-04-03T00:40:26;103086.19;;;4.06;100.00
76424;BME280;65257;52.104;4.268;2023-04-03T00:42:56;103081.13;;;4.06;100.00
76424;BME280;65257;52.104;4.268;2023-04-03T00:45:46;103086.78;;;4.04;100.00
76424;BME280;65257;52.104;4.268;2023-04-03T00:48:13;103080.09;;;4.04;100.00
76424;BME280;65257;52.104;4.268;2023-04-03T00:50:42;103086.34;;;3.99;100.00
76424;BME280;65257;52.104;4.268;2023-04-03T00:53:23;103092.44;;;4.01;100.00
76424;BME280;65257;52.104;4.268;2023-04-03T00:55:51;103092.75;;;4.04;100.00
76424;BME280;65257;52.104;4.268;2023-04-03T00:58:20;103087.69;;;4.04;100.00
76424;BME280;65257;52.104;4.268;2023-04-03T01:00:54;103094.25;;;4.02;100.00
76424;BME280;65257;52.104;4.268;2023-04-03T01:03:23;103093.47;;;4.03;100.00
76424;BME280;65257;52.104;4.268;2023-04-03T01:05:51;103096.00;;;4.03;100.00
76424;BME280;65257;52.104;4.268;2023-04-03T01:08:26;103095.75;;;4.00;100.00
76424;BME280;65257;52.104;4.268;2023-04-03T01:10:57;103097.22;;;3.98;100.00
76424;BME280;65257;52.104;4.268;2023-04-03T01:13:29;103104.69;;;4.05;100.00
76424;BME280;65257;52.104;4.268;2023-04-03T01:15:55;103099.31;;;4.02;100.00
76424;BME280;65257;52.104;4.268;2023-04-03T01:18:23;103101.09;;;4.03;100.00
76424;BME280;65257;52.104;4.268;2023-04-03T01:26:50;103101.41;;;3.98;100.00
76424;BME280;65257;52.104;4.268;2023-04-03T01:29:15;103099.59;;;3.88;100.00
76424;BME280;65257;52.104;4.268;2023-04-03T01:31:51;103101.41;;;3.89;100.00
76424;BME280;65257;52.104;4.268;2023-04-03T01:34:17;103101.09;;;3.86;100.00
76424;BME280;65257;52.104;4.268;2023-04-03T01:36:42;103103.47;;;3.85;100.00
76424;BME280;65257;52.104;4.268;2023-04-03T01:39:11;103100.06;;;3.84;100.00
76424;BME280;65257;52.104;4.268;2023-04-03T01:41:45;103101.69;;;3.92;100.00
76424;BME280;65257;52.104;4.268;2023-04-03T01:44:10;103103.78;;;3.79;100.00
76424;BME280;65257;52.104;4.268;2023-04-03T01:46:36;103112.41;;;3.81;100.00
76424;BME280;65257;52.104;4.268;2023-04-03T01:49:03;103101.97;;;3.78;100.00
76424;BME280;65257;52.104;4.268;2023-04-03T01:51:31;103102.56;;;3.75;100.00
76424;BME280;65257;52.104;4.268;2023-04-03T01:53:58;103098.84;;;3.72;100.00
76424;BME280;65257;52.104;4.268;2023-04-03T01:56:23;103102.84;;;3.70;100.00
76424;BME280;65257;52.104;4.268;2023-04-03T01:58:51;103103.16;;;3.73;100.00
76424;BME280;65257;52.104;4.268;2023-04-03T02:01:17;103101.66;;;3.66;100.00
76424;BME280;65257;52.104;4.268;2023-04-03T02:03:43;103097.50;;;3.67;100.00
76424;BME280;65257;52.104;4.268;2023-04-03T02:06:08;103098.69;;;3.62;100.00
76424;BME280;65257;52.104;4.268;2023-04-03T02:08:34;103108.06;;;3.63;100.00
76424;BME280;65257;52.104;4.268;2023-04-03T02:10:59;103110.00;;;3.57;100.00
76424;BME280;65257;52.104;4.268;2023-04-03T02:13:25;103114.31;;;3.58;100.00
76424;BME280;65257;52.104;4.268;2023-04-03T02:15:50;103113.25;;;3.56;100.00
76424;BME280;65257;52.104;4.268;2023-04-03T02:18:19;103115.34;;;3.60;100.00
76424;BME280;65257;52.104;4.268;2023-04-03T02:20:47;103116.69;;;3.65;100.00
76424;BME280;65257;52.104;4.268;2023-04-03T02:23:13;103112.66;;;3.58;100.00
76424;BME280;65257;52.104;4.268;2023-04-03T02:25:38;103118.00;;;3.53;100.00
76424;BME280;65257;52.104;4.268;2023-04-03T02:28:04;103121.59;;;3.55;100.00
76424;BME280;65257;52.104;4.268;2023-04-03T02:30:29;103127.09;;;3.51;100.00
76424;BME280;65257;52.104;4.268;2023-04-03T02:32:57;103121.28;;;3.52;100.00
76424;BME280;65257;52.104;4.268;2023-04-03T02:35:25;103122.75;;;3.50;100.00
76424;BME280;65257;52.104;4.268;2023-04-03T02:37:51;103126.06;;;3.49;100.00
76424;BME280;65257;52.104;4.268;2023-04-03T02:40:16;103120.38;;;3.43;100.00
76424;BME280;65257;52.104;4.268;2023-04-03T02:42:45;103123.94;;;3.45;100.00
76424;BME280;65257;52.104;4.268;2023-04-03T02:45:10;103124.53;;;3.42;100.00
76424;BME280;65257;52.104;4.268;2023-04-03T02:47:56;103125.44;;;3.43;100.00
76424;BME280;65257;52.104;4.268;2023-04-03T02:50:21;103126.59;;;3.38;100.00
76424;BME280;65257;52.104;4.268;2023-04-03T02:52:47;103126.28;;;3.35;100.00
76424;BME280;65257;52.104;4.268;2023-04-03T02:55:14;103121.22;;;3.35;100.00
76424;BME280;65257;52.104;4.268;2023-04-03T02:57:43;103122.72;;;3.33;100.00
76424;BME280;65257;52.104;4.268;2023-04-03T03:00:12;103124.63;;;3.27;100.00
76424;BME280;65257;52.104;4.268;2023-04-03T03:02:38;103119.41;;;3.25;100.00
76424;BME280;65257;52.104;4.268;2023-04-03T03:05:07;103123.59;;;3.25;100.00
76424;BME280;65257;52.104;4.268;2023-04-03T03:07:36;103136.69;;;3.21;100.00
76424;BME280;65257;52.104;4.268;2023-04-03T03:10:01;103128.00;;;3.18;100.00
76424;BME280;65257;52.104;4.268;2023-04-03T03:12:26;103130.97;;;3.14;100.00
76424;BME280;65257;52.104;4.268;2023-04-03T03:14:52;103132.78;;;3.15;100.00
76424;BME280;65257;52.104;4.268;2023-04-03T03:17:18;103124.13;;;3.13;100.00
76424;BME280;65257;52.104;4.268;2023-04-03T03:19:43;103122.03;;;3.09;100.00
76424;BME280;65257;52.104;4.268;2023-04-03T03:22:11;103130.34;;;3.08;100.00
76424;BME280;65257;52.104;4.268;2023-04-03T03:24:36;103130.06;;;3.05;100.00
76424;BME280;65257;52.104;4.268;2023-04-03T03:27:02;103119.63;;;3.02;100.00
76424;BME280;65257;52.104;4.268;2023-04-03T03:29:27;103130.34;;;3.00;100.00
76424;BME280;65257;52.104;4.268;2023-04-03T03:31:57;103142.06;;;2.99;100.00
76424;BME280;65257;52.104;4.268;2023-04-03T03:34:23;103141.91;;;2.98;100.00
76424;BME280;65257;52.104;4.268;2023-04-03T03:36:48;103145.00;;;2.95;100.00
76424;BME280;65257;52.104;4.268;2023-04-03T03:39:13;103143.06;;;2.93;100.00
76424;BME280;65257;52.104;4.268;2023-04-03T03:41:40;103141.88;;;2.89;100.00
76424;BME280;65257;52.104;4.268;2023-04-03T03:44:09;103148.69;;;2.90;100.00
76424;BME280;65257;52.104;4.268;2023-04-03T03:46:35;103145.13;;;2.88;100.00
76424;BME280;65257;52.104;4.268;2023-04-03T03:49:07;103142.47;;;2.87;100.00
76424;BME280;65257;52.104;4.268;2023-04-03T03:51:32;103152.38;;;2.85;100.00
76424;BME280;65257;52.104;4.268;2023-04-03T03:53:57;103153.16;;;2.84;100.00
76424;BME280;65257;52.104;4.268;2023-04-03T03:56:23;103152.50;;;2.78;100.00
76424;BME280;65257;52.104;4.268;2023-04-03T03:58:48;103145.97;;;2.80;100.00
76424;BME280;65257;52.104;4.268;2023-04-03T04:01:18;103135.72;;;2.79;100.00
76424;BME280;65257;52.104;4.268;2023-04-03T04:03:43;103137.03;;;2.75;100.00
76424;BME280;65257;52.104;4.268;2023-04-03T04:06:09;103142.06;;;2.75;100.00
76424;BME280;65257;52.104;4.268;2023-04-03T04:08:35;103144.78;;;2.77;100.00
76424;BME280;65257;52.104;4.268;2023-04-03T04:11:00;103145.94;;;2.72;100.00
76424;BME280;65257;52.104;4.268;2023-04-03T04:13:38;103148.59;;;2.73;100.00
76424;BME280;65257;52.104;4.268;2023-04-03T04:16:07;103145.94;;;2.72;100.00
76424;BME280;65257;52.104;4.268;2023-04-03T04:18:36;103145.63;;;2.69;100.00
76424;BME280;65257;52.104;4.268;2023-04-03T04:21:07;103151.25;;;2.66;100.00
76424;BME280;65257;52.104;4.268;2023-04-03T04:23:33;103151.25;;;2.66;100.00
76424;BME280;65257;52.104;4.268;2023-04-03T04:25:58;103151.66;;;2.62;100.00
76424;BME280;65257;52.104;4.268;2023-04-03T04:28:24;103158.50;;;2.63;100.00
76424;BME280;65257;52.104;4.268;2023-04-03T04:30:49;103159.22;;;2.62;100.00
76424;BME280;65257;52.104;4.268;2023-04-03T04:33:14;103154.94;;;2.61;100.00
76424;BME280;65257;52.104;4.268;2023-04-03T04:35:42;103159.09;;;2.61;100.00
76424;BME280;65257;52.104;4.268;2023-04-03T04:38:09;103160.72;;;2.60;100.00
76424;BME280;65257;52.104;4.268;2023-04-03T04:40:50;103161.88;;;2.55;100.00
76424;BME280;65257;52.104;4.268;2023-04-03T04:43:18;103160.09;;;2.54;100.00
76424;BME280;65257;52.104;4.268;2023-04-03T04:45:43;103160.38;;;2.57;100.00
76424;BME280;65257;52.104;4.268;2023-04-03T04:48:09;103160.97;;;2.54;100.00
76424;BME280;65257;52.104;4.268;2023-04-03T04:50:35;103166.59;;;2.52;100.00
76424;BME280;65257;52.104;4.268;2023-04-03T04:53:03;103161.41;;;2.50;100.00
76424;BME280;65257;52.104;4.268;2023-04-03T04:55:32;103172.06;;;2.48;100.00
76424;BME280;65257;52.104;4.268;2023-04-03T04:57:57;103176.97;;;2.46;100.00
76424;BME280;65257;52.104;4.268;2023-04-03T05:00:23;103165.22;;;2.47;100.00
76424;BME280;65257;52.104;4.268;2023-04-03T05:02:52;103173.69;;;2.47;100.00
76424;BME280;65257;52.104;4.268;2023-04-03T05:05:18;103176.06;;;2.46;100.00
76424;BME280;65257;52.104;4.268;2023-04-03T05:07:44;103165.66;;;2.43;100.00
76424;BME280;65257;52.104;4.268;2023-04-03T05:10:09;103172.19;;;2.41;100.00
76424;BME280;65257;52.104;4.268;2023-04-03T05:12:36;103177.22;;;2.41;100.00
76424;BME280;65257;52.104;4.268;2023-04-03T05:15:07;103172.91;;;2.40;100.00
76424;BME280;65257;52.104;4.268;2023-04-03T05:17:33;103171.53;;;2.35;100.00
76424;BME280;65257;52.104;4.268;2023-04-03T05:19:58;103179.44;;;2.38;100.00
76424;BME280;65257;52.104;4.268;2023-04-03T05:22:24;103174.38;;;2.38;100.00
76424;BME280;65257;52.104;4.268;2023-04-03T05:24:49;103174.78;;;2.34;100.00
76424;BME280;65257;52.104;4.268;2023-04-03T05:27:15;103173.91;;;2.33;100.00
76424;BME280;65257;52.104;4.268;2023-04-03T05:29:42;103173.31;;;2.36;100.00
76424;BME280;65257;52.104;4.268;2023-04-03T05:32:11;103174.06;;;2.35;100.00
76424;BME280;65257;52.104;4.268;2023-04-03T05:34:40;103174.78;;;2.34;100.00
76424;BME280;65257;52.104;4.268;2023-04-03T05:37:12;103176.25;;;2.32;100.00
76424;BME280;65257;52.104;4.268;2023-04-03T05:39:37;103194.59;;;2.38;100.00
76424;BME280;65257;52.104;4.268;2023-04-03T05:42:11;103183.44;;;2.36;100.00
76424;BME280;65257;52.104;4.268;2023-04-03T05:44:38;103196.34;;;2.39;100.00
76424;BME280;65257;52.104;4.268;2023-04-03T05:47:06;103198.31;;;2.41;100.00
76424;BME280;65257;52.104;4.268;2023-04-03T05:49:35;103197.44;;;2.41;100.00
76424;BME280;65257;52.104;4.268;2023-04-03T05:52:03;103197.72;;;2.44;100.00
76424;BME280;65257;52.104;4.268;2023-04-03T05:54:32;103198.06;;;2.47;100.00
76424;BME280;65257;52.104;4.268;2023-04-03T05:56:57;103204.59;;;2.45;100.00
76424;BME280;65257;52.104;4.268;2023-04-03T05:59:23;103201.66;;;2.49;100.00
76424;BME280;65257;52.104;4.268;2023-04-03T06:01:51;103206.72;;;2.49;100.00
76424;BME280;65257;52.104;4.268;2023-04-03T06:04:20;103208.38;;;2.57;100.00
76424;BME280;65257;52.104;4.268;2023-04-03T06:06:47;103205.88;;;2.57;100.00
76424;BME280;65257;52.104;4.268;2023-04-03T06:09:18;103214.81;;;2.62;100.00
76424;BME280;65257;52.104;4.268;2023-04-03T06:11:43;103208.00;;;2.61;100.00
76424;BME280;65257;52.104;4.268;2023-04-03T06:14:10;103222.66;;;2.72;100.00
76424;BME280;65257;52.104;4.268;2023-04-03T06:16:39;103220.84;;;2.71;100.00
76424;BME280;65257;52.104;4.268;2023-04-03T06:19:09;103220.59;;;2.77;100.00
76424;BME280;65257;52.104;4.268;2023-04-03T06:21:39;103224.75;;;2.76;100.00
76424;BME280;65257;52.104;4.268;2023-04-03T06:24:05;103225.41;;;2.82;100.00
76424;BME280;65257;52.104;4.268;2023-04-03T06:26:33;103223.91;;;2.84;100.00
76424;BME280;65257;52.104;4.268;2023-04-03T06:29:22;103231.41;;;2.91;100.00
76424;BME280;65257;52.104;4.268;2023-04-03T06:31:50;103237.09;;;2.97;100.00
76424;BME280;65257;52.104;4.268;2023-04-03T06:34:23;103230.56;;;2.99;100.00
76424;BME280;65257;52.104;4.268;2023-04-03T06:36:52;103227.91;;;3.06;100.00
76424;BME280;65257;52.104;4.268;2023-04-03T06:39:20;103222.03;;;3.14;100.00
76424;BME280;65257;52.104;4.268;2023-04-03T06:41:50;103225.44;;;3.15;100.00
76424;BME280;65257;52.104;4.268;2023-04-03T06:44:17;103226.22;;;3.23;100.00
76424;BME280;65257;52.104;4.268;2023-04-03T06:46:44;103229.50;;;3.22;100.00
76424;BME280;65257;52.104;4.268;2023-04-03T06:49:12;103224.22;;;3.36;100.00
76424;BME280;65257;52.104;4.268;2023-04-03T06:51:38;103234.66;;;3.39;100.00
76424;BME280;65257;52.104;4.268;2023-04-03T06:54:05;103223.63;;;3.38;100.00
76424;BME280;65257;52.104;4.268;2023-04-03T06:56:34;103228.72;;;3.47;100.00
76424;BME280;65257;52.104;4.268;2023-04-03T06:59:09;103233.81;;;3.55;100.00
76424;BME280;65257;52.104;4.268;2023-04-03T07:01:39;103237.72;;;3.60;100.00
76424;BME280;65257;52.104;4.268;2023-04-03T07:04:06;103230.94;;;3.76;100.00
76424;BME280;65257;52.104;4.268;2023-04-03T07:06:36;103229.13;;;3.75;100.00
76424;BME280;65257;52.104;4.268;2023-04-03T07:09:07;103239.59;;;3.87;100.00
76424;BME280;65257;52.104;4.268;2023-04-03T07:11:35;103240.69;;;4.06;100.00
76424;BME280;65257;52.104;4.268;2023-04-03T07:14:06;103239.63;;;4.04;100.00
76424;BME280;65257;52.104;4.268;2023-04-03T07:16:35;103245.19;;;4.34;100.00
76424;BME280;65257;52.104;4.268;2023-04-03T07:19:06;103236.94;;;5.14;100.00
76424;BME280;65257;52.104;4.268;2023-04-03T07:21:35;103249.63;;;6.21;100.00
76424;BME280;65257;52.104;4.268;2023-04-03T07:24:01;103247.91;;;6.86;100.00
76424;BME280;65257;52.104;4.268;2023-04-03T07:26:31;103250.66;;;7.27;100.00
76424;BME280;65257;52.104;4.268;2023-04-03T07:29:00;103245.06;;;7.31;100.00
76424;BME280;65257;52.104;4.268;2023-04-03T07:31:27;103249.66;;;7.06;100.00
76424;BME280;65257;52.104;4.268;2023-04-03T07:33:54;103246.88;;;7.91;100.00
76424;BME280;65257;52.104;4.268;2023-04-03T07:36:23;103240.09;;;7.91;100.00
76424;BME280;65257;52.104;4.268;2023-04-03T07:38:50;103246.78;;;8.30;100.00
76424;BME280;65257;52.104;4.268;2023-04-03T07:41:22;103260.13;;;8.17;100.00
76424;BME280;65257;52.104;4.268;2023-04-03T07:43:52;103256.84;;;8.38;100.00
76424;BME280;65257;52.104;4.268;2023-04-03T07:46:19;103262.66;;;8.88;100.00
76424;BME280;65257;52.104;4.268;2023-04-03T07:48:46;103261.78;;;8.67;100.00
76424;BME280;65257;52.104;4.268;2023-04-03T07:51:12;103260.00;;;8.26;100.00
76424;BME280;65257;52.104;4.268;2023-04-03T07:53:42;103262.56;;;8.56;100.00
76424;BME280;65257;52.104;4.268;2023-04-03T07:56:08;103268.06;;;9.02;100.00
76424;BME280;65257;52.104;4.268;2023-04-03T07:58:55;103277.31;;;8.90;100.00
76424;BME280;65257;52.104;4.268;2023-04-03T08:01:22;103277.16;;;9.30;100.00
76424;BME280;65257;52.104;4.268;2023-04-03T08:03:48;103279.94;;;9.87;100.00
76424;BME280;65257;52.104;4.268;2023-04-03T08:06:16;103285.13;;;10.10;100.00
76424;BME280;65257;52.104;4.268;2023-04-03T08:08:42;103285.28;;;10.56;100.00
76424;BME280;65257;52.104;4.268;2023-04-03T08:11:13;103278.63;;;10.82;100.00
76424;BME280;65257;52.104;4.268;2023-04-03T08:13:45;103276.19;;;11.18;100.00
76424;BME280;65257;52.104;4.268;2023-04-03T08:16:20;103277.22;;;11.56;100.00
76424;BME280;65257;52.104;4.268;2023-04-03T08:18:57;103271.19;;;10.85;100.00
76424;BME280;65257;52.104;4.268;2023-04-03T08:21:28;103269.50;;;10.62;100.00
76424;BME280;65257;52.104;4.268;2023-04-03T08:23:55;103277.94;;;10.49;100.00
76424;BME280;65257;52.104;4.268;2023-04-03T08:26:22;103277.03;;;10.37;100.00
76424;BME280;65257;52.104;4.268;2023-04-03T08:28:49;103290.75;;;10.16;100.00
76424;BME280;65257;52.104;4.268;2023-04-03T08:31:19;103289.78;;;10.71;100.00
76424;BME280;65257;52.104;4.268;2023-04-03T08:33:46;103281.22;;;10.25;100.00
76424;BME280;65257;52.104;4.268;2023-04-03T08:36:31;103295.72;;;10.36;100.00
76424;BME280;65257;52.104;4.268;2023-04-03T08:38:59;103272.13;;;10.40;100.00
76424;BME280;65257;52.104;4.268;2023-04-03T08:41:39;103283.09;;;10.73;100.00
76424;BME280;65257;52.104;4.268;2023-04-03T08:44:46;103279.06;;;11.34;100.00
76424;BME280;65257;52.104;4.268;2023-04-03T08:47:36;103280.72;;;12.31;100.00
76424;BME280;65257;52.104;4.268;2023-04-03T08:50:26;103279.63;;;12.65;100.00
76424;BME280;65257;52.104;4.268;2023-04-03T08:53:00;103273.91;;;12.82;100.00
76424;BME280;65257;52.104;4.268;2023-04-03T08:55:42;103278.47;;;12.35;100.00
76424;BME280;65257;52.104;4.268;2023-04-03T08:58:15;103277.81;;;11.88;100.00
76424;BME280;65257;52.104;4.268;2023-04-03T09:00:53;103267.94;;;12.44;100.00
76424;BME280;65257;52.104;4.268;2023-04-03T09:03:28;103265.59;;;12.73;100.00
76424;BME280;65257;52.104;4.268;2023-04-03T09:06:05;103273.47;;;12.76;100.00
76424;BME280;65257;52.104;4.268;2023-04-03T09:11:25;103285.13;;;12.71;100.00
76424;BME280;65257;52.104;4.268;2023-04-03T09:14:02;103276.25;;;13.45;100.00
76424;BME280;65257;52.104;4.268;2023-04-03T09:16:49;103274.72;;;12.81;100.00
76424;BME280;65257;52.104;4.268;2023-04-03T09:19:34;103282.00;;;13.28;100.00
76424;BME280;65257;52.104;4.268;2023-04-03T09:22:24;103273.34;;;13.94;96.81
76424;BME280;65257;52.104;4.268;2023-04-03T09:24:59;103267.31;;;13.66;87.97
76424;BME280;65257;52.104;4.268;2023-04-03T09:27:28;103266.94;;;14.45;80.11
76424;BME280;65257;52.104;4.268;2023-04-03T09:29:55;103274.28;;;13.41;76.89
76424;BME280;65257;52.104;4.268;2023-04-03T09:32:35;103264.56;;;14.05;65.91
76424;BME280;65257;52.104;4.268;2023-04-03T09:35:19;103260.28;;;12.83;67.07
76424;BME280;65257;52.104;4.268;2023-04-03T09:37:48;103257.06;;;13.95;63.20
76424;BME280;65257;52.104;4.268;2023-04-03T09:40:33;103257.47;;;14.01;57.26
76424;BME280;65257;52.104;4.268;2023-04-03T09:43:30;103263.69;;;13.77;55.62
76424;BME280;65257;52.104;4.268;2023-04-03T09:46:24;103240.50;;;13.22;55.63
76424;BME280;65257;52.104;4.268;2023-04-03T09:49:18;103234.88;;;13.97;47.06
76424;BME280;65257;52.104;4.268;2023-04-03T09:51:47;103244.41;;;13.98;48.34
76424;BME280;65257;52.104;4.268;2023-04-03T09:54:29;103238.94;;;14.80;45.13
76424;BME280;65257;52.104;4.268;2023-04-03T09:56:58;103243.94;;;13.91;45.25
76424;BME280;65257;52.104;4.268;2023-04-03T09:59:30;103250.31;;;13.97;45.08
76424;BME280;65257;52.104;4.268;2023-04-03T10:05:01;103247.44;;;12.96;45.39
76424;BME280;65257;52.104;4.268;2023-04-03T10:07:36;103228.25;;;12.91;47.60
76424;BME280;65257;52.104;4.268;2023-04-03T10:10:25;103228.56;;;14.34;44.80
76424;BME280;65257;52.104;4.268;2023-04-03T10:13:20;103224.22;;;14.33;39.08
76424;BME280;65257;52.104;4.268;2023-04-03T10:24:02;103212.53;;;15.31;33.75
76424;BME280;65257;52.104;4.268;2023-04-03T10:26:41;103218.44;;;15.44;33.68
76424;BME280;65257;52.104;4.268;2023-04-03T10:34:32;103221.34;;;14.14;31.22
76424;BME280;65257;52.104;4.268;2023-04-03T10:37:26;103214.69;;;14.62;30.61
76424;BME280;65257;52.104;4.268;2023-04-03T10:48:35;103204.41;;;15.39;26.73
76424;BME280;65257;52.104;4.268;2023-04-03T10:51:29;103214.97;;;15.44;26.41
76424;BME280;65257;52.104;4.268;2023-04-03T10:54:45;103207.09;;;13.08;27.42
76424;BME280;65257;52.104;4.268;2023-04-03T10:57:29;103205.25;;;13.34;27.71
76424;BME280;65257;52.104;4.268;2023-04-03T11:00:20;103207.00;;;13.90;27.64
76424;BME280;65257;52.104;4.268;2023-04-03T11:03:03;103201.47;;;14.12;28.54
76424;BME280;65257;52.104;4.268;2023-04-03T11:05:43;103194.56;;;13.68;27.41
76424;BME280;65257;52.104;4.268;2023-04-03T11:10:48;103192.75;;;14.99;24.76
76424;BME280;65257;52.104;4.268;2023-04-03T11:13:41;103184.47;;;14.74;24.93
76424;BME280;65257;52.104;4.268;2023-04-03T11:16:21;103174.84;;;14.86;24.88
76424;BME280;65257;52.104;4.268;2023-04-03T11:18:59;103193.22;;;14.47;24.21
76424;BME280;65257;52.104;4.268;2023-04-03T11:21:42;103181.72;;;15.01;25.39
76424;BME280;65257;52.104;4.268;2023-04-03T11:24:27;103185.19;;;15.18;24.22
76424;BME280;65257;52.104;4.268;2023-04-03T11:26:56;103177.09;;;15.91;24.11
76424;BME280;65257;52.104;4.268;2023-04-03T11:29:27;103166.69;;;14.64;25.81
76424;BME280;65257;52.104;4.268;2023-04-03T11:34:58;103170.63;;;14.57;23.74
76424;BME280;65257;52.104;4.268;2023-04-03T11:38:04;103180.03;;;13.98;25.30
76424;BME280;65257;52.104;4.268;2023-04-03T11:41:13;103157.13;;;13.88;25.35
76424;BME280;65257;52.104;4.268;2023-04-03T11:43:57;103148.38;;;14.43;24.16
76424;BME280;65257;52.104;4.268;2023-04-03T11:46:53;103146.66;;;14.58;23.56
76424;BME280;65257;52.104;4.268;2023-04-03T11:50:00;103147.91;;;14.35;23.48
76424;BME280;65257;52.104;4.268;2023-04-03T11:53:08;103143.00;;;14.25;23.76
76424;BME280;65257;52.104;4.268;2023-04-03T11:56:29;103142.03;;;14.23;23.98
76424;BME280;65257;52.104;4.268;2023-04-03T11:59:26;103133.91;;;14.61;24.53
76424;BME280;65257;52.104;4.268;2023-04-03T12:02:50;103134.78;;;14.16;24.73
76424;BME280;65257;52.104;4.268;2023-04-03T12:05:33;103129.28;;;14.39;24.69
76424;BME280;65257;52.104;4.268;2023-04-03T12:14:55;103102.63;;;14.39;25.70
76424;BME280;65257;52.104;4.268;2023-04-03T12:25:49;103117.69;;;15.09;24.27
76424;BME280;65257;52.104;4.268;2023-04-03T12:39:19;103096.50;;;14.68;23.40
76424;BME280;65257;52.104;4.268;2023-04-03T12:45:28;103092.69;;;15.24;23.33
76424;BME280;65257;52.104;4.268;2023-04-03T12:48:46;103101.56;;;14.97;22.84
76424;BME280;65257;52.104;4.268;2023-04-03T12:59:35;103089.69;;;14.37;22.81
76424;BME280;65257;52.104;4.268;2023-04-03T13:02:38;103095.00;;;14.40;22.10
76424;BME280;65257;52.104;4.268;2023-04-03T13:06:15;103093.59;;;13.58;23.21
76424;BME280;65257;52.104;4.268;2023-04-03T13:09:26;103084.47;;;13.21;24.18
76424;BME280;65257;52.104;4.268;2023-04-03T13:12:58;103076.03;;;13.65;23.66
76424;BME280;65257;52.104;4.268;2023-04-03T13:19:22;103077.00;;;13.10;24.58
76424;BME280;65257;52.104;4.268;2023-04-03T13:25:35;103089.25;;;13.14;25.40
76424;BME280;65257;52.104;4.268;2023-04-03T13:28:43;103081.44;;;12.72;25.94
76424;BME280;65257;52.104;4.268;2023-04-03T13:31:18;103086.50;;;12.57;26.22
76424;BME280;65257;52.104;4.268;2023-04-03T13:34:21;103071.41;;;12.36;27.47
76424;BME280;65257;52.104;4.268;2023-04-03T13:37:28;103064.94;;;12.02;27.59
76424;BME280;65257;52.104;4.268;2023-04-03T13:40:13;103066.00;;;12.05;28.35
76424;BME280;65257;52.104;4.268;2023-04-03T13:43:34;103060.78;;;12.04;28.50
76424;BME280;65257;52.104;4.268;2023-04-03T13:46:28;103058.72;;;11.60;29.12
76424;BME280;65257;52.104;4.268;2023-04-03T13:48:57;103059.78;;;11.26;29.12
76424;BME280;65257;52.104;4.268;2023-04-03T13:51:45;103062.06;;;11.59;30.12
76424;BME280;65257;52.104;4.268;2023-04-03T13:54:37;103070.09;;;11.39;31.05
76424;BME280;65257;52.104;4.268;2023-04-03T13:57:16;103072.56;;;11.13;31.36
76424;BME280;65257;52.104;4.268;2023-04-03T13:59:48;103068.34;;;11.02;31.03
76424;BME280;65257;52.104;4.268;2023-04-03T14:02:59;103066.72;;;11.27;30.67
76424;BME280;65257;52.104;4.268;2023-04-03T14:05:31;103059.03;;;11.27;32.31
76424;BME280;65257;52.104;4.268;2023-04-03T14:08:06;103055.66;;;11.28;30.97
76424;BME280;65257;52.104;4.268;2023-04-03T14:10:36;103043.41;;;11.49;31.07
76424;BME280;65257;52.104;4.268;2023-04-03T14:13:05;103057.69;;;11.45;32.22
76424;BME280;65257;52.104;4.268;2023-04-03T14:15:35;103034.72;;;11.09;32.79
76424;BME280;65257;52.104;4.268;2023-04-03T14:18:04;103038.59;;;10.79;33.46
76424;BME280;65257;52.104;4.268;2023-04-03T14:20:35;103027.03;;;11.09;34.84
76424;BME280;65257;52.104;4.268;2023-04-03T14:23:05;103029.97;;;11.15;33.02
76424;BME280;65257;52.104;4.268;2023-04-03T14:25:42;103024.84;;;11.15;33.26
76424;BME280;65257;52.104;4.268;2023-04-03T14:28:31;103029.50;;;11.20;33.81
76424;BME280;65257;52.104;4.268;2023-04-03T14:31:30;103030.94;;;11.04;33.98
76424;BME280;65257;52.104;4.268;2023-04-03T14:34:04;103030.44;;;11.09;32.66
76424;BME280;65257;52.104;4.268;2023-04-03T14:36:32;103035.50;;;10.83;33.48
76424;BME280;65257;52.104;4.268;2023-04-03T14:39:25;103023.00;;;10.88;32.72
76424;BME280;65257;52.104;4.268;2023-04-03T14:42:00;103015.63;;;10.92;32.14
76424;BME280;65257;52.104;4.268;2023-04-03T14:44:49;103025.03;;;10.80;33.25
76424;BME280;65257;52.104;4.268;2023-04-03T14:47:33;103017.72;;;10.73;33.21
76424;BME280;65257;52.104;4.268;2023-04-03T14:50:25;103021.72;;;10.69;33.44